sensor_id;sensor_type;location;lat;lon;timestamp;pressure;altitude;pressure_sealevel;temperature;humidity
51715;BME280;39115;59.332;18.034;2023-01-05T00:01:04;100041.91;;;0.87;73.59
51715;BME280;39115;59.332;18.034;2023-01-05T00:03:24;100053.16;;;0.89;73.88
51715;BME280;39115;59.332;18.034;2023-01-05T00:05:45;100045.28;;;0.89;73.79
51715;BME280;39115;59.332;18.034;2023-01-05T00:08:05;100053.88;;;0.91;73.79
51715;BME280;39115;59.332;18.034;2023-01-05T00:10:25;100048.75;;;0.90;73.88
51715;BME280;39115;59.332;18.034;2023-01-05T00:13:04;100052.28;;;0.89;73.80
51715;BME280;39115;59.332;18.034;2023-01-05T00:15:43;100056.78;;;0.87;73.95
51715;BME280;39115;59.332;18.034;2023-01-05T00:18:22;100052.56;;;0.84;73.84
51715;BME280;39115;59.332;18.034;2023-01-05T00:21:01;100057.78;;;0.84;73.86
51715;BME280;39115;59.332;18.034;2023-01-05T00:23:40;100055.19;;;0.84;73.90
51715;BME280;39115;59.332;18.034;2023-01-05T00:26:00;100050.69;;;0.86;73.72
51715;BME280;39115;59.332;18.034;2023-01-05T00:28:21;100063.78;;;0.86;73.83
51715;BME280;39115;59.332;18.034;2023-01-05T00:30:42;100057.69;;;0.86;73.80
51715;BME280;39115;59.332;18.034;2023-01-05T00:33:06;100057.63;;;0.87;73.91
51715;BME280;39115;59.332;18.034;2023-01-05T00:35:27;100053.41;;;0.85;74.08
51715;BME280;39115;59.332;18.034;2023-01-05T00:37:48;100055.06;;;0.86;73.69
51715;BME280;39115;59.332;18.034;2023-01-05T00:40:13;100065.75;;;0.83;73.86
51715;BME280;39115;59.332;18.034;2023-01-05T00:42:33;100042.28;;;0.81;74.05
51715;BME280;39115;59.332;18.034;2023-01-05T00:44:53;100054.59;;;0.79;73.85
51715;BME280;39115;59.332;18.034;2023-01-05T00:47:14;100050.41;;;0.76;73.72
51715;BME280;39115;59.332;18.034;2023-01-05T00:49:34;100058.31;;;0.75;73.53
51715;BME280;39115;59.332;18.034;2023-01-05T00:51:54;100058.31;;;0.75;74.01
51715;BME280;39115;59.332;18.034;2023-01-05T00:54:15;100043.47;;;0.75;73.91
51715;BME280;39115;59.332;18.034;2023-01-05T00:56:35;100061.97;;;0.72;73.93
51715;BME280;39115;59.332;18.034;2023-01-05T00:58:56;100065.44;;;0.73;73.75
51715;BME280;39115;59.332;18.034;2023-01-05T01:01:16;100063.56;;;0.75;73.89
51715;BME280;39115;59.332;18.034;2023-01-05T01:03:36;100059.94;;;0.77;73.76
51715;BME280;39115;59.332;18.034;2023-01-05T01:05:57;100062.47;;;0.79;73.92
51715;BME280;39115;59.332;18.034;2023-01-05T01:08:17;100057.31;;;0.77;73.80
51715;BME280;39115;59.332;18.034;2023-01-05T01:10:38;100069.66;;;0.75;73.50
51715;BME280;39115;59.332;18.034;2023-01-05T01:12:59;100072.19;;;0.77;73.99
51715;BME280;39115;59.332;18.034;2023-01-05T01:15:19;100057.41;;;0.76;73.94
51715;BME280;39115;59.332;18.034;2023-01-05T01:17:39;100058.50;;;0.72;73.40
51715;BME280;39115;59.332;18.034;2023-01-05T01:20:00;100056.91;;;0.69;74.00
51715;BME280;39115;59.332;18.034;2023-01-05T01:22:20;100052.50;;;0.70;73.57
51715;BME280;39115;59.332;18.034;2023-01-05T01:24:40;100062.22;;;0.68;73.96
51715;BME280;39115;59.332;18.034;2023-01-05T01:27:01;100063.16;;;0.67;73.73
51715;BME280;39115;59.332;18.034;2023-01-05T01:29:22;100059.72;;;0.66;73.82
51715;BME280;39115;59.332;18.034;2023-01-05T01:31:43;100068.50;;;0.65;73.89
51715;BME280;39115;59.332;18.034;2023-01-05T01:34:04;100064.94;;;0.66;73.88
51715;BME280;39115;59.332;18.034;2023-01-05T01:36:24;100067.56;;;0.66;73.61
51715;BME280;39115;59.332;18.034;2023-01-05T01:38:45;100070.28;;;0.65;74.02
51715;BME280;39115;59.332;18.034;2023-01-05T01:41:05;100074.59;;;0.66;73.35
51715;BME280;39115;59.332;18.034;2023-01-05T01:46:01;100050.34;;;0.62;73.50
51715;BME280;39115;59.332;18.034;2023-01-05T01:48:21;100074.75;;;0.62;73.65
51715;BME280;39115;59.332;18.034;2023-01-05T01:50:43;100076.53;;;0.62;74.04
51715;BME280;39115;59.332;18.034;2023-01-05T01:55:35;100080.75;;;0.65;74.09
51715;BME280;39115;59.332;18.034;2023-01-05T01:57:56;100089.53;;;0.63;73.72
51715;BME280;39115;59.332;18.034;2023-01-05T02:00:17;100088.63;;;0.65;73.78
51715;BME280;39115;59.332;18.034;2023-01-05T02:02:38;100073.94;;;0.62;73.70
51715;BME280;39115;59.332;18.034;2023-01-05T02:04:59;100084.47;;;0.60;73.85
51715;BME280;39115;59.332;18.034;2023-01-05T02:07:22;100079.16;;;0.62;73.88
51715;BME280;39115;59.332;18.034;2023-01-05T02:09:43;100075.59;;;0.63;73.94
51715;BME280;39115;59.332;18.034;2023-01-05T02:14:36;100083.28;;;0.66;73.41
51715;BME280;39115;59.332;18.034;2023-01-05T02:24:41;100084.22;;;0.65;73.41
51715;BME280;39115;59.332;18.034;2023-01-05T02:27:26;100093.84;;;0.65;73.62
51715;BME280;39115;59.332;18.034;2023-01-05T02:35:44;100110.97;;;0.70;73.48
51715;BME280;39115;59.332;18.034;2023-01-05T02:40:37;100095.19;;;0.72;73.73
51715;BME280;39115;59.332;18.034;2023-01-05T02:42:57;100118.84;;;0.70;73.35
51715;BME280;39115;59.332;18.034;2023-01-05T02:45:20;100124.00;;;0.72;73.54
51715;BME280;39115;59.332;18.034;2023-01-05T02:47:41;100123.09;;;0.73;73.38
51715;BME280;39115;59.332;18.034;2023-01-05T02:50:03;100128.50;;;0.70;73.71
51715;BME280;39115;59.332;18.034;2023-01-05T02:52:26;100122.47;;;0.68;73.27
51715;BME280;39115;59.332;18.034;2023-01-05T02:54:48;100119.97;;;0.66;73.16
51715;BME280;39115;59.332;18.034;2023-01-05T02:57:11;100126.03;;;0.67;73.38
51715;BME280;39115;59.332;18.034;2023-01-05T02:59:39;100140.81;;;0.68;73.45
51715;BME280;39115;59.332;18.034;2023-01-05T03:02:03;100142.72;;;0.66;73.35
51715;BME280;39115;59.332;18.034;2023-01-05T03:04:27;100128.94;;;0.62;73.61
51715;BME280;39115;59.332;18.034;2023-01-05T03:06:58;100145.38;;;0.64;73.08
51715;BME280;39115;59.332;18.034;2023-01-05T03:09:19;100145.47;;;0.62;73.19
51715;BME280;39115;59.332;18.034;2023-01-05T03:14:26;100142.97;;;0.61;73.49
51715;BME280;39115;59.332;18.034;2023-01-05T03:16:50;100150.81;;;0.61;73.64
51715;BME280;39115;59.332;18.034;2023-01-05T03:19:12;100152.41;;;0.63;73.78
51715;BME280;39115;59.332;18.034;2023-01-05T03:21:52;100159.41;;;0.63;73.44
51715;BME280;39115;59.332;18.034;2023-01-05T03:24:33;100169.06;;;0.62;73.70
51715;BME280;39115;59.332;18.034;2023-01-05T03:27:12;100173.47;;;0.62;73.17
51715;BME280;39115;59.332;18.034;2023-01-05T03:29:52;100170.91;;;0.60;73.41
51715;BME280;39115;59.332;18.034;2023-01-05T03:32:31;100178.78;;;0.60;73.28
51715;BME280;39115;59.332;18.034;2023-01-05T03:35:14;100181.47;;;0.59;73.67
51715;BME280;39115;59.332;18.034;2023-01-05T03:37:55;100179.94;;;0.55;73.22
51715;BME280;39115;59.332;18.034;2023-01-05T03:40:21;100177.25;;;0.56;73.43
51715;BME280;39115;59.332;18.034;2023-01-05T03:42:43;100198.13;;;0.58;73.45
51715;BME280;39115;59.332;18.034;2023-01-05T03:45:04;100199.91;;;0.57;73.14
51715;BME280;39115;59.332;18.034;2023-01-05T03:47:26;100218.16;;;0.59;73.16
51715;BME280;39115;59.332;18.034;2023-01-05T03:49:46;100198.13;;;0.58;73.50
51715;BME280;39115;59.332;18.034;2023-01-05T03:52:06;100198.28;;;0.55;73.25
51715;BME280;39115;59.332;18.034;2023-01-05T03:54:27;100197.44;;;0.54;73.48
51715;BME280;39115;59.332;18.034;2023-01-05T03:56:47;100209.72;;;0.54;73.35
51715;BME280;39115;59.332;18.034;2023-01-05T03:59:07;100198.38;;;0.53;73.19
51715;BME280;39115;59.332;18.034;2023-01-05T04:01:28;100202.78;;;0.53;73.17
51715;BME280;39115;59.332;18.034;2023-01-05T04:03:48;100206.22;;;0.53;73.33
51715;BME280;39115;59.332;18.034;2023-01-05T04:06:08;100204.38;;;0.55;73.13
51715;BME280;39115;59.332;18.034;2023-01-05T04:08:29;100216.38;;;0.59;73.27
51715;BME280;39115;59.332;18.034;2023-01-05T04:10:52;100206.75;;;0.60;72.87
51715;BME280;39115;59.332;18.034;2023-01-05T04:13:13;100201.56;;;0.58;73.58
51715;BME280;39115;59.332;18.034;2023-01-05T04:15:33;100211.22;;;0.58;72.99
51715;BME280;39115;59.332;18.034;2023-01-05T04:17:54;100213.00;;;0.57;73.36
51715;BME280;39115;59.332;18.034;2023-01-05T04:20:14;100233.19;;;0.55;72.94
51715;BME280;39115;59.332;18.034;2023-01-05T04:22:34;100213.25;;;0.53;73.19
51715;BME280;39115;59.332;18.034;2023-01-05T04:24:55;100228.97;;;0.53;73.40
51715;BME280;39115;59.332;18.034;2023-01-05T04:27:15;100225.69;;;0.49;73.04
51715;BME280;39115;59.332;18.034;2023-01-05T04:29:35;100226.59;;;0.48;73.04
51715;BME280;39115;59.332;18.034;2023-01-05T04:31:56;100257.16;;;0.47;73.18
51715;BME280;39115;59.332;18.034;2023-01-05T04:34:16;100251.94;;;0.47;73.32
51715;BME280;39115;59.332;18.034;2023-01-05T04:36:37;100251.19;;;0.45;73.47
51715;BME280;39115;59.332;18.034;2023-01-05T04:38:57;100256.47;;;0.44;73.29
51715;BME280;39115;59.332;18.034;2023-01-05T04:41:17;100262.59;;;0.44;73.03
51715;BME280;39115;59.332;18.034;2023-01-05T04:43:37;100274.75;;;0.45;72.87
51715;BME280;39115;59.332;18.034;2023-01-05T04:45:58;100280.00;;;0.45;73.15
51715;BME280;39115;59.332;18.034;2023-01-05T04:48:19;100280.81;;;0.46;73.00
51715;BME280;39115;59.332;18.034;2023-01-05T04:50:39;100293.84;;;0.47;72.87
51715;BME280;39115;59.332;18.034;2023-01-05T04:53:00;100297.13;;;0.51;73.08
51715;BME280;39115;59.332;18.034;2023-01-05T04:55:20;100301.31;;;0.55;73.31
51715;BME280;39115;59.332;18.034;2023-01-05T04:57:40;100311.78;;;0.55;72.99
51715;BME280;39115;59.332;18.034;2023-01-05T05:00:03;100308.16;;;0.58;73.25
51715;BME280;39115;59.332;18.034;2023-01-05T05:02:24;100312.47;;;0.59;72.56
51715;BME280;39115;59.332;18.034;2023-01-05T05:04:45;100319.53;;;0.57;72.90
51715;BME280;39115;59.332;18.034;2023-01-05T05:07:06;100309.25;;;0.54;72.91
51715;BME280;39115;59.332;18.034;2023-01-05T05:09:26;100318.03;;;0.53;72.60
51715;BME280;39115;59.332;18.034;2023-01-05T05:11:47;100326.72;;;0.53;72.74
51715;BME280;39115;59.332;18.034;2023-01-05T05:14:07;100323.31;;;0.51;72.53
51715;BME280;39115;59.332;18.034;2023-01-05T05:16:27;100344.28;;;0.51;72.97
51715;BME280;39115;59.332;18.034;2023-01-05T05:18:48;100331.13;;;0.53;72.90
51715;BME280;39115;59.332;18.034;2023-01-05T05:21:08;100347.69;;;0.53;72.93
51715;BME280;39115;59.332;18.034;2023-01-05T05:23:29;100353.78;;;0.54;73.11
51715;BME280;39115;59.332;18.034;2023-01-05T05:25:49;100353.84;;;0.52;72.89
51715;BME280;39115;59.332;18.034;2023-01-05T05:28:10;100366.09;;;0.52;72.82
51715;BME280;39115;59.332;18.034;2023-01-05T05:30:30;100365.25;;;0.51;72.68
51715;BME280;39115;59.332;18.034;2023-01-05T05:32:51;100358.34;;;0.50;72.91
51715;BME280;39115;59.332;18.034;2023-01-05T05:35:11;100380.13;;;0.51;72.53
51715;BME280;39115;59.332;18.034;2023-01-05T05:37:31;100370.66;;;0.48;72.61
51715;BME280;39115;59.332;18.034;2023-01-05T05:39:52;100383.75;;;0.48;72.64
51715;BME280;39115;59.332;18.034;2023-01-05T05:42:12;100390.59;;;0.51;72.63
51715;BME280;39115;59.332;18.034;2023-01-05T05:44:32;100396.59;;;0.53;72.40
51715;BME280;39115;59.332;18.034;2023-01-05T05:46:53;100397.34;;;0.55;73.12
51715;BME280;39115;59.332;18.034;2023-01-05T05:49:13;100400.06;;;0.53;73.05
51715;BME280;39115;59.332;18.034;2023-01-05T05:51:33;100402.69;;;0.53;72.60
51715;BME280;39115;59.332;18.034;2023-01-05T05:53:54;100413.16;;;0.53;73.06
51715;BME280;39115;59.332;18.034;2023-01-05T05:56:14;100413.94;;;0.55;73.14
51715;BME280;39115;59.332;18.034;2023-01-05T05:58:35;100409.38;;;0.59;72.85
51715;BME280;39115;59.332;18.034;2023-01-05T06:00:58;100414.63;;;0.59;72.98
51715;BME280;39115;59.332;18.034;2023-01-05T06:03:19;100415.53;;;0.58;72.58
51715;BME280;39115;59.332;18.034;2023-01-05T06:05:41;100420.00;;;0.56;72.59
51715;BME280;39115;59.332;18.034;2023-01-05T06:08:02;100433.19;;;0.54;73.00
51715;BME280;39115;59.332;18.034;2023-01-05T06:10:22;100428.09;;;0.51;72.39
51715;BME280;39115;59.332;18.034;2023-01-05T06:12:42;100427.41;;;0.47;72.54
51715;BME280;39115;59.332;18.034;2023-01-05T06:15:03;100443.22;;;0.46;72.58
51715;BME280;39115;59.332;18.034;2023-01-05T06:17:23;100452.91;;;0.44;72.50
51715;BME280;39115;59.332;18.034;2023-01-05T06:19:44;100444.22;;;0.43;72.55
51715;BME280;39115;59.332;18.034;2023-01-05T06:22:04;100440.03;;;0.39;73.04
51715;BME280;39115;59.332;18.034;2023-01-05T06:24:24;100442.06;;;0.34;72.55
51715;BME280;39115;59.332;18.034;2023-01-05T06:26:45;100450.91;;;0.31;72.93
51715;BME280;39115;59.332;18.034;2023-01-05T06:29:05;100450.81;;;0.33;73.00
51715;BME280;39115;59.332;18.034;2023-01-05T06:31:26;100448.28;;;0.31;72.76
51715;BME280;39115;59.332;18.034;2023-01-05T06:33:46;100456.28;;;0.28;72.55
51715;BME280;39115;59.332;18.034;2023-01-05T06:36:06;100466.84;;;0.27;72.65
51715;BME280;39115;59.332;18.034;2023-01-05T06:38:27;100467.84;;;0.24;72.61
51715;BME280;39115;59.332;18.034;2023-01-05T06:40:48;100485.63;;;0.18;72.83
51715;BME280;39115;59.332;18.034;2023-01-05T06:43:09;100488.22;;;0.18;72.78
51715;BME280;39115;59.332;18.034;2023-01-05T06:45:30;100503.91;;;0.19;72.60
51715;BME280;39115;59.332;18.034;2023-01-05T06:47:50;100507.34;;;0.20;72.89
51715;BME280;39115;59.332;18.034;2023-01-05T06:50:10;100507.56;;;0.15;72.88
51715;BME280;39115;59.332;18.034;2023-01-05T06:52:31;100518.13;;;0.13;72.67
51715;BME280;39115;59.332;18.034;2023-01-05T06:54:55;100532.03;;;0.14;72.69
51715;BME280;39115;59.332;18.034;2023-01-05T06:57:15;100541.81;;;0.10;72.61
51715;BME280;39115;59.332;18.034;2023-01-05T06:59:36;100544.59;;;0.07;72.75
51715;BME280;39115;59.332;18.034;2023-01-05T07:01:56;100545.72;;;0.02;72.93
51715;BME280;39115;59.332;18.034;2023-01-05T07:04:17;100550.38;;;-0.05;73.00
51715;BME280;39115;59.332;18.034;2023-01-05T07:06:37;100554.13;;;-0.11;73.06
51715;BME280;39115;59.332;18.034;2023-01-05T07:08:57;100567.38;;;-0.14;72.75
51715;BME280;39115;59.332;18.034;2023-01-05T07:11:18;100559.56;;;-0.16;73.08
51715;BME280;39115;59.332;18.034;2023-01-05T07:13:38;100580.56;;;-0.17;72.85
51715;BME280;39115;59.332;18.034;2023-01-05T07:15:58;100579.66;;;-0.16;73.11
51715;BME280;39115;59.332;18.034;2023-01-05T07:18:19;100590.22;;;-0.18;73.09
51715;BME280;39115;59.332;18.034;2023-01-05T07:20:39;100578.88;;;-0.18;72.83
51715;BME280;39115;59.332;18.034;2023-01-05T07:23:00;100590.25;;;-0.19;73.00
51715;BME280;39115;59.332;18.034;2023-01-05T07:25:20;100591.25;;;-0.22;72.96
51715;BME280;39115;59.332;18.034;2023-01-05T07:27:40;100597.41;;;-0.23;72.53
51715;BME280;39115;59.332;18.034;2023-01-05T07:30:04;100607.09;;;-0.25;72.85
51715;BME280;39115;59.332;18.034;2023-01-05T07:32:24;100612.47;;;-0.28;72.91
51715;BME280;39115;59.332;18.034;2023-01-05T07:34:44;100614.16;;;-0.27;73.12
51715;BME280;39115;59.332;18.034;2023-01-05T07:37:05;100623.63;;;-0.24;72.97
51715;BME280;39115;59.332;18.034;2023-01-05T07:39:25;100623.72;;;-0.26;72.75
51715;BME280;39115;59.332;18.034;2023-01-05T07:41:46;100625.53;;;-0.28;72.92
51715;BME280;39115;59.332;18.034;2023-01-05T07:44:06;100624.72;;;-0.28;72.81
51715;BME280;39115;59.332;18.034;2023-01-05T07:46:26;100622.09;;;-0.28;72.94
51715;BME280;39115;59.332;18.034;2023-01-05T07:48:47;100628.22;;;-0.29;72.94
51715;BME280;39115;59.332;18.034;2023-01-05T07:51:08;100640.66;;;-0.35;72.89
51715;BME280;39115;59.332;18.034;2023-01-05T07:53:29;100644.97;;;-0.34;72.70
51715;BME280;39115;59.332;18.034;2023-01-05T07:55:54;100652.78;;;-0.32;72.72
51715;BME280;39115;59.332;18.034;2023-01-05T07:58:14;100656.28;;;-0.33;72.76
51715;BME280;39115;59.332;18.034;2023-01-05T08:00:35;100651.06;;;-0.33;72.81
51715;BME280;39115;59.332;18.034;2023-01-05T08:02:55;100664.97;;;-0.33;72.45
51715;BME280;39115;59.332;18.034;2023-01-05T08:05:16;100672.91;;;-0.34;72.82
51715;BME280;39115;59.332;18.034;2023-01-05T08:07:36;100683.56;;;-0.39;72.64
51715;BME280;39115;59.332;18.034;2023-01-05T08:09:56;100680.16;;;-0.41;73.01
51715;BME280;39115;59.332;18.034;2023-01-05T08:12:35;100699.38;;;-0.42;72.48
51715;BME280;39115;59.332;18.034;2023-01-05T08:15:15;100695.94;;;-0.42;72.85
51715;BME280;39115;59.332;18.034;2023-01-05T08:17:36;100699.44;;;-0.43;72.88
51715;BME280;39115;59.332;18.034;2023-01-05T08:20:00;100715.22;;;-0.45;73.00
51715;BME280;39115;59.332;18.034;2023-01-05T08:22:20;100716.94;;;-0.44;73.10
51715;BME280;39115;59.332;18.034;2023-01-05T08:24:40;100719.38;;;-0.41;72.58
51715;BME280;39115;59.332;18.034;2023-01-05T08:27:01;100724.50;;;-0.38;73.08
51715;BME280;39115;59.332;18.034;2023-01-05T08:29:21;100733.19;;;-0.37;72.81
51715;BME280;39115;59.332;18.034;2023-01-05T08:31:42;100738.50;;;-0.39;73.00
51715;BME280;39115;59.332;18.034;2023-01-05T08:34:03;100740.31;;;-0.41;72.73
51715;BME280;39115;59.332;18.034;2023-01-05T08:36:24;100749.06;;;-0.42;72.82
51715;BME280;39115;59.332;18.034;2023-01-05T08:38:50;100751.75;;;-0.43;72.52
51715;BME280;39115;59.332;18.034;2023-01-05T08:41:11;100755.38;;;-0.46;72.88
51715;BME280;39115;59.332;18.034;2023-01-05T08:43:31;100761.69;;;-0.52;72.51
51715;BME280;39115;59.332;18.034;2023-01-05T08:45:51;100774.91;;;-0.55;72.76
51715;BME280;39115;59.332;18.034;2023-01-05T08:48:12;100780.19;;;-0.56;72.72
51715;BME280;39115;59.332;18.034;2023-01-05T08:50:32;100789.66;;;-0.54;72.77
51715;BME280;39115;59.332;18.034;2023-01-05T08:52:52;100805.34;;;-0.54;72.79
51715;BME280;39115;59.332;18.034;2023-01-05T08:55:13;100807.31;;;-0.59;72.66
51715;BME280;39115;59.332;18.034;2023-01-05T08:57:33;100808.38;;;-0.63;72.51
51715;BME280;39115;59.332;18.034;2023-01-05T08:59:53;100809.19;;;-0.62;72.65
51715;BME280;39115;59.332;18.034;2023-01-05T09:02:14;100808.19;;;-0.58;72.46
51715;BME280;39115;59.332;18.034;2023-01-05T09:04:34;100818.50;;;-0.55;72.70
51715;BME280;39115;59.332;18.034;2023-01-05T09:06:54;100824.47;;;-0.52;72.12
51715;BME280;39115;59.332;18.034;2023-01-05T09:09:15;100835.72;;;-0.50;72.46
51715;BME280;39115;59.332;18.034;2023-01-05T09:11:35;100833.94;;;-0.49;72.68
51715;BME280;39115;59.332;18.034;2023-01-05T09:13:57;100832.38;;;-0.53;72.70
51715;BME280;39115;59.332;18.034;2023-01-05T09:16:18;100847.41;;;-0.58;72.33
51715;BME280;39115;59.332;18.034;2023-01-05T09:18:40;100852.69;;;-0.60;72.53
51715;BME280;39115;59.332;18.034;2023-01-05T09:21:01;100851.75;;;-0.59;72.85
51715;BME280;39115;59.332;18.034;2023-01-05T09:23:21;100849.81;;;-0.54;72.59
51715;BME280;39115;59.332;18.034;2023-01-05T09:25:41;100853.16;;;-0.50;72.27
51715;BME280;39115;59.332;18.034;2023-01-05T09:28:02;100871.28;;;-0.45;72.47
51715;BME280;39115;59.332;18.034;2023-01-05T09:30:22;100876.50;;;-0.45;72.60
51715;BME280;39115;59.332;18.034;2023-01-05T09:32:42;100876.66;;;-0.49;72.26
51715;BME280;39115;59.332;18.034;2023-01-05T09:35:03;100881.16;;;-0.52;72.38
51715;BME280;39115;59.332;18.034;2023-01-05T09:37:23;100885.59;;;-0.54;72.58
51715;BME280;39115;59.332;18.034;2023-01-05T09:39:44;100902.19;;;-0.55;72.61
51715;BME280;39115;59.332;18.034;2023-01-05T09:42:05;100897.13;;;-0.60;72.67
51715;BME280;39115;59.332;18.034;2023-01-05T09:44:33;100900.06;;;-0.68;72.44
51715;BME280;39115;59.332;18.034;2023-01-05T09:47:15;100909.81;;;-0.73;72.70
51715;BME280;39115;59.332;18.034;2023-01-05T09:49:37;100903.75;;;-0.73;72.54
51715;BME280;39115;59.332;18.034;2023-01-05T09:52:02;100897.66;;;-0.74;72.52
51715;BME280;39115;59.332;18.034;2023-01-05T09:54:26;100922.16;;;-0.76;72.76
51715;BME280;39115;59.332;18.034;2023-01-05T09:56:48;100910.84;;;-0.77;72.64
51715;BME280;39115;59.332;18.034;2023-01-05T09:59:13;100919.50;;;-0.75;72.86
51715;BME280;39115;59.332;18.034;2023-01-05T10:01:34;100920.44;;;-0.77;72.37
51715;BME280;39115;59.332;18.034;2023-01-05T10:03:57;100917.09;;;-0.81;72.65
51715;BME280;39115;59.332;18.034;2023-01-05T10:06:18;100922.53;;;-0.86;72.43
51715;BME280;39115;59.332;18.034;2023-01-05T10:08:44;100915.75;;;-0.91;73.00
51715;BME280;39115;59.332;18.034;2023-01-05T10:11:09;100929.88;;;-0.97;72.81
51715;BME280;39115;59.332;18.034;2023-01-05T10:13:54;100924.94;;;-1.05;72.58
51715;BME280;39115;59.332;18.034;2023-01-05T10:16:16;100939.13;;;-1.12;72.70
51715;BME280;39115;59.332;18.034;2023-01-05T10:18:37;100947.16;;;-1.17;72.88
51715;BME280;39115;59.332;18.034;2023-01-05T10:23:27;100947.41;;;-1.24;72.87
51715;BME280;39115;59.332;18.034;2023-01-05T10:28:23;100960.69;;;-1.31;72.87
51715;BME280;39115;59.332;18.034;2023-01-05T10:33:15;100969.44;;;-1.32;72.66
51715;BME280;39115;59.332;18.034;2023-01-05T10:38:19;100979.03;;;-1.32;72.72
51715;BME280;39115;59.332;18.034;2023-01-05T10:46:07;100998.22;;;-1.33;72.84
51715;BME280;39115;59.332;18.034;2023-01-05T10:48:29;100994.72;;;-1.32;72.82
51715;BME280;39115;59.332;18.034;2023-01-05T10:50:53;101005.03;;;-1.29;72.90
51715;BME280;39115;59.332;18.034;2023-01-05T10:53:17;101011.16;;;-1.30;72.82
51715;BME280;39115;59.332;18.034;2023-01-05T10:55:51;100998.09;;;-1.30;72.89
51715;BME280;39115;59.332;18.034;2023-01-05T10:58:24;101006.84;;;-1.31;72.78
51715;BME280;39115;59.332;18.034;2023-01-05T11:00:45;101010.53;;;-1.37;72.63
51715;BME280;39115;59.332;18.034;2023-01-05T11:03:08;101019.41;;;-1.42;72.75
51715;BME280;39115;59.332;18.034;2023-01-05T11:05:33;101016.88;;;-1.44;72.73
51715;BME280;39115;59.332;18.034;2023-01-05T11:07:56;101033.47;;;-1.47;72.82
51715;BME280;39115;59.332;18.034;2023-01-05T11:10:27;101033.47;;;-1.47;72.89
51715;BME280;39115;59.332;18.034;2023-01-05T11:12:50;101037.75;;;-1.44;72.83
51715;BME280;39115;59.332;18.034;2023-01-05T11:15:11;101043.56;;;-1.36;72.90
51715;BME280;39115;59.332;18.034;2023-01-05T11:17:34;101047.13;;;-1.38;72.58
51715;BME280;39115;59.332;18.034;2023-01-05T11:19:57;101055.13;;;-1.43;72.69
51715;BME280;39115;59.332;18.034;2023-01-05T11:24:47;101067.41;;;-1.47;72.64
51715;BME280;39115;59.332;18.034;2023-01-05T11:29:39;101061.97;;;-1.39;72.42
51715;BME280;39115;59.332;18.034;2023-01-05T11:32:00;101070.69;;;-1.40;72.67
51715;BME280;39115;59.332;18.034;2023-01-05T11:39:24;101086.56;;;-1.46;72.48
51715;BME280;39115;59.332;18.034;2023-01-05T11:41:45;101096.00;;;-1.42;72.66
51715;BME280;39115;59.332;18.034;2023-01-05T11:44:05;101095.22;;;-1.44;72.80
51715;BME280;39115;59.332;18.034;2023-01-05T11:46:26;101099.56;;;-1.45;72.80
51715;BME280;39115;59.332;18.034;2023-01-05T11:48:58;101109.97;;;-1.43;72.51
51715;BME280;39115;59.332;18.034;2023-01-05T11:51:40;101103.94;;;-1.45;72.46
51715;BME280;39115;59.332;18.034;2023-01-05T11:54:00;101116.28;;;-1.50;72.69
51715;BME280;39115;59.332;18.034;2023-01-05T11:56:22;101124.22;;;-1.53;72.59
51715;BME280;39115;59.332;18.034;2023-01-05T11:58:43;101122.50;;;-1.54;72.57
51715;BME280;39115;59.332;18.034;2023-01-05T12:01:11;101120.88;;;-1.59;72.62
51715;BME280;39115;59.332;18.034;2023-01-05T12:06:09;101125.53;;;-1.68;72.70
51715;BME280;39115;59.332;18.034;2023-01-05T12:13:18;101134.59;;;-1.80;72.60
51715;BME280;39115;59.332;18.034;2023-01-05T12:15:45;101141.53;;;-1.79;72.70
51715;BME280;39115;59.332;18.034;2023-01-05T12:30:47;101164.31;;;-1.84;72.55
51715;BME280;39115;59.332;18.034;2023-01-05T12:33:13;101173.81;;;-1.82;72.72
51715;BME280;39115;59.332;18.034;2023-01-05T12:35:56;101177.25;;;-1.81;72.87
51715;BME280;39115;59.332;18.034;2023-01-05T12:43:01;101185.13;;;-1.83;72.57
51715;BME280;39115;59.332;18.034;2023-01-05T12:47:55;101192.03;;;-1.80;72.66
51715;BME280;39115;59.332;18.034;2023-01-05T12:50:26;101213.91;;;-1.84;72.60
51715;BME280;39115;59.332;18.034;2023-01-05T12:52:53;101213.09;;;-1.86;72.79
51715;BME280;39115;59.332;18.034;2023-01-05T12:57:37;101236.78;;;-1.94;72.80
51715;BME280;39115;59.332;18.034;2023-01-05T13:04:44;101253.34;;;-1.95;72.67
51715;BME280;39115;59.332;18.034;2023-01-05T13:07:53;101249.94;;;-1.97;72.52
51715;BME280;39115;59.332;18.034;2023-01-05T13:09:51;101261.38;;;-2.03;72.60
51715;BME280;39115;59.332;18.034;2023-01-05T13:12:14;101261.44;;;-2.04;72.88
51715;BME280;39115;59.332;18.034;2023-01-05T13:14:36;101269.28;;;-2.06;72.56
51715;BME280;39115;59.332;18.034;2023-01-05T13:21:53;101281.53;;;-2.08;72.76
51715;BME280;39115;59.332;18.034;2023-01-05T13:24:16;101271.16;;;-2.11;72.71
51715;BME280;39115;59.332;18.034;2023-01-05T13:26:41;101277.31;;;-2.14;72.80
51715;BME280;39115;59.332;18.034;2023-01-05T13:29:02;101279.88;;;-2.12;72.68
51715;BME280;39115;59.332;18.034;2023-01-05T13:41:28;101306.97;;;-2.16;72.74
51715;BME280;39115;59.332;18.034;2023-01-05T13:46:31;101319.22;;;-2.20;72.83
51715;BME280;39115;59.332;18.034;2023-01-05T13:51:31;101328.75;;;-2.19;72.64
51715;BME280;39115;59.332;18.034;2023-01-05T13:53:55;101325.31;;;-2.21;72.52
51715;BME280;39115;59.332;18.034;2023-01-05T13:56:18;101348.97;;;-2.27;72.93
51715;BME280;39115;59.332;18.034;2023-01-05T13:58:47;101352.50;;;-2.30;72.58
51715;BME280;39115;59.332;18.034;2023-01-05T14:01:18;101354.25;;;-2.30;72.88
51715;BME280;39115;59.332;18.034;2023-01-05T14:03:52;101351.63;;;-2.30;72.76
51715;BME280;39115;59.332;18.034;2023-01-05T14:06:17;101356.91;;;-2.32;72.92
51715;BME280;39115;59.332;18.034;2023-01-05T14:08:38;101356.06;;;-2.34;72.75